createdAt,value
2022-11-13T00:00:01.901Z,6.9
2022-11-13T00:01:01.505Z,7
2022-11-13T00:02:01.069Z,7
2022-11-13T00:03:01.642Z,7
2022-11-13T00:04:01.218Z,7
2022-11-13T00:05:01.790Z,7
2022-11-13T00:06:01.380Z,7
2022-11-13T00:07:01.995Z,7
2022-11-13T00:08:01.601Z,6.9
2022-11-13T00:09:01.177Z,6.8
2022-11-13T00:10:01.870Z,6.8
2022-11-13T00:11:01.436Z,6.7
2022-11-13T00:12:02.012Z,6.6
2022-11-13T00:13:01.598Z,6.6
2022-11-13T00:14:01.174Z,6.5
2022-11-13T00:15:01.760Z,6.5
2022-11-13T00:16:01.358Z,6.5
2022-11-13T00:17:01.918Z,6.5
2022-11-13T00:18:01.513Z,6.5
2022-11-13T00:19:01.076Z,6.5
2022-11-13T00:20:01.650Z,6.4
2022-11-13T00:21:01.231Z,6.5
2022-11-13T00:22:01.809Z,6.5
2022-11-13T00:23:01.401Z,6.5
2022-11-13T00:24:01.988Z,6.6
2022-11-13T00:25:01.566Z,6.7
2022-11-13T00:26:01.259Z,6.7
2022-11-13T00:27:01.743Z,6.8
2022-11-13T00:28:01.319Z,6.8
2022-11-13T00:29:01.896Z,6.8
2022-11-13T00:30:01.476Z,6.7
2022-11-13T00:31:02.053Z,6.8
2022-11-13T00:32:01.644Z,6.8
2022-11-13T00:33:01.226Z,6.7
2022-11-13T00:35:01.359Z,6.5
2022-11-13T00:36:01.940Z,6.5
2022-11-13T00:37:01.513Z,6.5
2022-11-13T00:38:01.091Z,6.5
2022-11-13T00:39:01.687Z,6.4
2022-11-13T00:40:01.262Z,6.3
2022-11-13T00:41:01.836Z,6.2
2022-11-13T00:42:01.534Z,6.3
2022-11-13T00:43:01.996Z,6.4
2022-11-13T00:44:01.590Z,6.4
2022-11-13T00:45:01.168Z,6.4
2022-11-13T00:46:01.854Z,6.6
2022-11-13T00:47:01.403Z,6.6
2022-11-13T00:48:01.982Z,6.5
2022-11-13T00:49:01.566Z,6.4
2022-11-13T00:50:01.145Z,6.5
2022-11-13T00:51:01.739Z,6.6
2022-11-13T00:52:01.320Z,6.7
2022-11-13T00:53:01.914Z,6.7
2022-11-13T00:54:01.497Z,6.7
2022-11-13T00:55:01.088Z,6.6
2022-11-13T00:56:01.673Z,6.5
2022-11-13T00:57:01.249Z,6.4
2022-11-13T00:58:01.948Z,6.4
2022-11-13T00:59:01.489Z,6.4
2022-11-13T01:00:01.078Z,6.4
2022-11-13T01:01:01.657Z,6.4
2022-11-13T01:02:01.325Z,6.5
2022-11-13T01:03:01.814Z,6.5
2022-11-13T01:04:01.391Z,6.5
2022-11-13T01:05:01.968Z,6.3
2022-11-13T01:06:01.558Z,6.2
2022-11-13T01:07:01.174Z,6.1
2022-11-13T01:08:01.717Z,6.1
2022-11-13T01:09:01.297Z,6.1
2022-11-13T01:10:01.872Z,6
2022-11-13T01:11:01.468Z,5.9
2022-11-13T01:12:02.037Z,5.9
2022-11-13T01:13:01.611Z,5.8
2022-11-13T01:14:01.315Z,5.8
2022-11-13T01:15:01.786Z,5.8
2022-11-13T01:16:01.382Z,5.8
2022-11-13T01:17:01.940Z,5.8
2022-11-13T01:18:01.515Z,5.8
2022-11-13T01:19:01.096Z,5.9
2022-11-13T01:20:01.674Z,5.9
2022-11-13T01:21:01.283Z,5.9
2022-11-13T01:22:01.862Z,5.9
2022-11-13T01:23:01.441Z,6
2022-11-13T01:24:02.020Z,6
2022-11-13T01:25:01.596Z,6.1
2022-11-13T01:26:01.172Z,6.2
2022-11-13T01:27:01.770Z,6.2
2022-11-13T01:28:01.348Z,6.1
2022-11-13T01:29:01.922Z,6.1
2022-11-13T01:30:01.632Z,6.1
2022-11-13T01:31:01.096Z,6.2
2022-11-13T01:32:01.676Z,6.2
2022-11-13T01:33:01.254Z,6.3
2022-11-13T01:34:01.828Z,6.3
2022-11-13T01:35:01.403Z,6.3
2022-11-13T01:36:01.978Z,6.4
2022-11-13T01:37:01.797Z,6.3
2022-11-13T01:38:01.214Z,6.3
2022-11-13T01:39:01.788Z,6.3
2022-11-13T01:40:01.368Z,6.3
2022-11-13T01:41:01.940Z,6.3
2022-11-13T01:42:01.543Z,6.3
2022-11-13T01:43:01.096Z,6.3
2022-11-13T01:44:01.675Z,6.3
2022-11-13T01:45:01.264Z,6.3
2022-11-13T01:46:01.964Z,6.3
2022-11-13T01:47:01.608Z,6.3
2022-11-13T01:48:01.103Z,6.3
2022-11-13T01:49:01.682Z,6.3
2022-11-13T01:50:01.261Z,6.3
2022-11-13T01:51:01.839Z,6.2
2022-11-13T01:52:01.412Z,6.3
2022-11-13T01:53:02.051Z,6.3
2022-11-13T01:54:01.691Z,6.2
2022-11-13T01:55:01.210Z,6.2
2022-11-13T01:56:01.786Z,6.2
2022-11-13T01:57:01.363Z,6.2
2022-11-13T01:58:01.963Z,6.2
2022-11-13T01:59:01.557Z,6.2
2022-11-13T02:00:01.111Z,6.1
2022-11-13T02:01:01.686Z,6.1
2022-11-13T02:02:01.442Z,6.1
2022-11-13T02:03:01.849Z,6.1
2022-11-13T02:04:01.447Z,6
2022-11-13T02:05:02.009Z,6
2022-11-13T02:06:01.588Z,6.1
2022-11-13T02:07:01.253Z,6
2022-11-13T02:08:01.748Z,6.1
2022-11-13T02:09:01.344Z,6
2022-11-13T02:10:01.938Z,6
2022-11-13T02:11:01.511Z,6
2022-11-13T02:12:01.085Z,6
2022-11-13T02:13:01.658Z,5.8
2022-11-13T02:14:01.259Z,5.6
2022-11-13T02:15:01.820Z,5.5
2022-11-13T02:16:01.396Z,5.5
2022-11-13T02:17:01.970Z,5.5
2022-11-13T02:18:01.666Z,5.5
2022-11-13T02:19:01.140Z,5.5
2022-11-13T02:20:01.711Z,5.5
2022-11-13T02:21:01.290Z,5.5
2022-11-13T02:22:01.871Z,5.5
2022-11-13T02:23:01.450Z,5.5
2022-11-13T02:24:02.045Z,5.4
2022-11-13T02:25:01.635Z,5.4
2022-11-13T02:26:01.213Z,5.5
2022-11-13T02:27:01.792Z,5.4
2022-11-13T02:28:01.365Z,5.3
2022-11-13T02:29:01.951Z,5.5
2022-11-13T02:30:01.549Z,5.5
2022-11-13T02:31:01.116Z,5.5
2022-11-13T02:32:01.700Z,5.4
2022-11-13T02:33:01.333Z,5.3
2022-11-13T02:34:01.977Z,5.4
2022-11-13T02:35:01.536Z,5.2
2022-11-13T02:36:01.091Z,5
2022-11-13T02:37:01.663Z,4.9
2022-11-13T02:38:01.238Z,4.7
2022-11-13T02:39:01.814Z,4.8
2022-11-13T02:40:01.417Z,4.9
2022-11-13T02:41:01.979Z,4.9
2022-11-13T02:42:01.561Z,5.1
2022-11-13T02:43:01.165Z,5
2022-11-13T02:44:01.720Z,5.2
2022-11-13T02:45:01.337Z,5.3
2022-11-13T02:46:01.876Z,5.3
2022-11-13T02:47:01.457Z,5.3
2022-11-13T02:48:01.200Z,5.4
2022-11-13T02:49:01.623Z,5.5
2022-11-13T02:50:01.339Z,5.4
2022-11-13T02:51:01.783Z,5.3
2022-11-13T02:52:01.359Z,5.2
2022-11-13T02:53:01.933Z,5.1
2022-11-13T02:54:01.510Z,5
2022-11-13T02:55:01.113Z,4.9
2022-11-13T02:56:01.670Z,4.9
2022-11-13T02:57:01.243Z,5
2022-11-13T02:58:01.818Z,5.1
2022-11-13T02:59:01.394Z,5.1
2022-11-13T03:00:02.006Z,5.2
2022-11-13T03:01:01.584Z,5.3
2022-11-13T03:02:01.245Z,5.2
2022-11-13T03:03:01.747Z,5.2
2022-11-13T03:04:01.338Z,5.2
2022-11-13T03:05:17.059Z,5.2
2022-11-13T03:06:01.601Z,5.2
2022-11-13T03:07:01.156Z,5.1
2022-11-13T03:08:01.724Z,5.1
2022-11-13T03:09:01.298Z,5.2
2022-11-13T03:10:01.928Z,5.2
2022-11-13T03:11:01.532Z,5.3
2022-11-13T03:12:01.111Z,5.3
2022-11-13T03:13:01.683Z,5.3
2022-11-13T03:14:01.270Z,5.4
2022-11-13T03:15:01.867Z,5.3
2022-11-13T03:16:01.447Z,5.3
2022-11-13T03:17:02.016Z,5.3
2022-11-13T03:18:01.613Z,5.3
2022-11-13T03:19:01.191Z,5.2
2022-11-13T03:20:01.786Z,5.3
2022-11-13T03:21:01.361Z,5.2
2022-11-13T03:22:02.058Z,5.1
2022-11-13T03:23:01.599Z,5
2022-11-13T03:24:01.174Z,4.9
2022-11-13T03:25:04.924Z,4.8
2022-11-13T03:26:01.301Z,4.8
2022-11-13T03:27:01.878Z,4.8
2022-11-13T03:28:01.522Z,4.9
2022-11-13T03:29:01.118Z,5
2022-11-13T03:30:01.673Z,5
2022-11-13T03:31:01.247Z,5.1
2022-11-13T03:32:01.860Z,5.1
2022-11-13T03:33:01.433Z,5.1
2022-11-13T03:34:02.012Z,5.3
2022-11-13T03:35:01.596Z,5.3
2022-11-13T03:36:01.177Z,5.2
2022-11-13T03:37:01.776Z,5.1
2022-11-13T03:38:01.466Z,5
2022-11-13T03:39:01.934Z,5
2022-11-13T03:40:01.506Z,5
2022-11-13T03:41:01.083Z,4.9
2022-11-13T03:42:01.675Z,4.8
2022-11-13T03:43:01.249Z,4.9
2022-11-13T03:44:01.824Z,4.9
2022-11-13T03:45:01.418Z,5
2022-11-13T03:46:01.986Z,5
2022-11-13T03:47:01.562Z,4.8
2022-11-13T03:48:01.232Z,4.7
2022-11-13T03:49:01.725Z,4.9
2022-11-13T03:50:01.320Z,5.1
2022-11-13T03:51:01.874Z,5.1
2022-11-13T03:52:01.460Z,4.9
2022-11-13T03:53:02.036Z,4.6
2022-11-13T03:54:01.736Z,4.5
2022-11-13T03:55:01.296Z,4.4
2022-11-13T03:56:01.861Z,4.3
2022-11-13T03:57:01.438Z,4.2
2022-11-13T03:58:02.031Z,4.2
2022-11-13T03:59:01.605Z,4.3
2022-11-13T04:00:01.178Z,4.5
2022-11-13T04:01:01.749Z,4.5
2022-11-13T04:02:01.356Z,4.6
2022-11-13T04:03:01.929Z,4.8
2022-11-13T04:04:01.506Z,4.9
2022-11-13T04:05:01.080Z,4.7
2022-11-13T04:06:01.657Z,4.7
2022-11-13T04:07:01.281Z,4.8
2022-11-13T04:08:01.833Z,4.9
2022-11-13T04:09:01.427Z,4.9
2022-11-13T04:10:02.110Z,5.1
2022-11-13T04:11:01.684Z,5.1
2022-11-13T04:12:01.237Z,5.2
2022-11-13T04:13:01.830Z,5.2
2022-11-13T04:14:01.404Z,5.3
2022-11-13T04:15:01.979Z,5.3
2022-11-13T04:16:01.557Z,5.3
2022-11-13T04:17:01.133Z,5.3
2022-11-13T04:18:01.728Z,5.2
2022-11-13T04:19:01.338Z,5.1
2022-11-13T04:20:01.895Z,5.1
2022-11-13T04:21:01.472Z,5.1
2022-11-13T04:22:02.053Z,5.1
2022-11-13T04:23:01.647Z,5
2022-11-13T04:24:01.222Z,5
2022-11-13T04:25:01.806Z,5.1
2022-11-13T04:26:01.507Z,5.1
2022-11-13T04:27:01.957Z,5
2022-11-13T04:28:01.552Z,4.9
2022-11-13T04:29:01.115Z,5
2022-11-13T04:30:01.711Z,5
2022-11-13T04:31:01.287Z,5.1
2022-11-13T04:32:01.864Z,5.1
2022-11-13T04:33:01.446Z,5.1
2022-11-13T04:34:02.028Z,5.2
2022-11-13T04:35:01.603Z,5.1
2022-11-13T04:36:01.180Z,4.9
2022-11-13T04:37:01.754Z,4.9
2022-11-13T04:38:01.332Z,4.9
2022-11-13T04:39:01.926Z,4.8
2022-11-13T04:40:01.513Z,4.7
2022-11-13T04:41:01.091Z,4.6
2022-11-13T04:42:01.791Z,4.7
2022-11-13T04:43:01.327Z,4.7
2022-11-13T04:44:01.924Z,4.8
2022-11-13T04:45:01.514Z,4.8
2022-11-13T04:46:01.087Z,4.9
2022-11-13T04:47:01.666Z,4.9
2022-11-13T04:48:01.242Z,4.9
2022-11-13T04:49:01.939Z,4.7
2022-11-13T04:50:01.477Z,4.6
2022-11-13T04:51:02.052Z,4.5
2022-11-13T04:52:01.629Z,4.4
2022-11-13T04:53:01.206Z,4.4
2022-11-13T04:54:01.798Z,4.4
2022-11-13T04:55:01.383Z,4.3
2022-11-13T04:56:01.948Z,4.2
2022-11-13T04:57:01.524Z,4.2
2022-11-13T04:58:01.214Z,4.1
2022-11-13T04:59:01.702Z,4.1
2022-11-13T05:00:01.281Z,4
2022-11-13T05:01:01.858Z,4
2022-11-13T05:02:01.500Z,4
2022-11-13T05:03:02.020Z,4
2022-11-13T05:04:01.622Z,4
2022-11-13T05:05:04.856Z,4
2022-11-13T05:06:01.762Z,4.1
2022-11-13T05:07:01.471Z,4.1
2022-11-13T05:08:01.929Z,4.1
2022-11-13T05:09:01.503Z,4.2
2022-11-13T05:10:01.101Z,4.2
2022-11-13T05:11:01.664Z,4.2
2022-11-13T05:12:01.240Z,4.2
2022-11-13T05:13:01.818Z,4.2
2022-11-13T05:14:03.538Z,4.2
2022-11-13T05:15:01.956Z,4
2022-11-13T05:16:01.532Z,3.9
2022-11-13T05:17:01.111Z,3.8
2022-11-13T05:18:01.686Z,3.7
2022-11-13T05:19:01.263Z,3.7
2022-11-13T05:20:01.861Z,3.6
2022-11-13T05:21:01.435Z,3.8
2022-11-13T05:22:02.012Z,3.9
2022-11-13T05:23:01.590Z,4
2022-11-13T05:24:01.166Z,4
2022-11-13T05:25:01.759Z,4
2022-11-13T05:26:01.334Z,4
2022-11-13T05:27:01.910Z,4
2022-11-13T05:28:01.485Z,3.9
2022-11-13T05:29:02.080Z,4
2022-11-13T05:30:01.771Z,3.9
2022-11-13T05:31:01.298Z,4
2022-11-13T05:32:01.873Z,4
2022-11-13T05:33:01.451Z,4.1
2022-11-13T05:34:05.661Z,4.1
2022-11-13T05:35:01.582Z,4.1
2022-11-13T05:36:01.160Z,4.2
2022-11-13T05:37:01.731Z,4.2
2022-11-13T05:38:01.330Z,4.2
2022-11-13T05:39:01.908Z,4.2
2022-11-13T05:40:01.482Z,4
2022-11-13T05:41:02.056Z,4
2022-11-13T05:42:01.627Z,4
2022-11-13T05:43:01.221Z,4
2022-11-13T05:44:01.802Z,3.9
2022-11-13T05:45:01.382Z,3.9
2022-11-13T05:46:02.076Z,4
2022-11-13T05:47:01.601Z,4
2022-11-13T05:48:01.176Z,4.1
2022-11-13T05:49:01.863Z,4.1
2022-11-13T05:50:01.408Z,4.1
2022-11-13T05:51:01.984Z,4.2
2022-11-13T05:52:01.559Z,4.2
2022-11-13T05:53:01.134Z,4.1
2022-11-13T05:54:01.725Z,4.2
2022-11-13T05:55:01.317Z,4.3
2022-11-13T05:56:01.886Z,4.3
2022-11-13T05:57:01.458Z,4.3
2022-11-13T05:58:02.035Z,4.3
2022-11-13T05:59:01.629Z,4.3
2022-11-13T06:00:01.204Z,4.2
2022-11-13T06:01:01.777Z,4.2
2022-11-13T06:02:01.515Z,4.2
2022-11-13T06:03:01.940Z,4.2
2022-11-13T06:04:01.532Z,4.2
2022-11-13T06:05:01.107Z,4.1
2022-11-13T06:06:01.681Z,4.1
2022-11-13T06:07:01.361Z,4
2022-11-13T06:08:01.840Z,4.1
2022-11-13T06:09:01.416Z,4.2
2022-11-13T06:10:01.992Z,4.1
2022-11-13T06:11:01.585Z,4
2022-11-13T06:12:01.159Z,4
2022-11-13T06:13:01.731Z,3.9
2022-11-13T06:14:01.307Z,3.8
2022-11-13T06:15:01.888Z,3.8
2022-11-13T06:16:01.483Z,3.9
2022-11-13T06:17:02.049Z,4
2022-11-13T06:18:01.741Z,3.9
2022-11-13T06:19:01.294Z,3.9
2022-11-13T06:20:01.869Z,3.9
2022-11-13T06:21:01.461Z,3.9
2022-11-13T06:22:02.013Z,4
2022-11-13T06:23:01.591Z,4
2022-11-13T06:24:01.172Z,4
2022-11-13T06:25:01.742Z,4
2022-11-13T06:26:01.334Z,4.1
2022-11-13T06:27:01.914Z,4.2
2022-11-13T06:28:01.489Z,4.3
2022-11-13T06:29:02.066Z,4.2
2022-11-13T06:30:01.643Z,4.1
2022-11-13T06:31:01.238Z,4
2022-11-13T06:32:01.804Z,4
2022-11-13T06:33:01.395Z,3.8
2022-11-13T06:34:01.993Z,3.7
2022-11-13T06:35:01.575Z,3.7
2022-11-13T06:36:01.153Z,3.7
2022-11-13T06:37:02.034Z,3.6
2022-11-13T06:38:01.378Z,3.5
2022-11-13T06:39:01.996Z,3.4
2022-11-13T06:40:01.615Z,3.3
2022-11-13T06:41:01.191Z,3.3
2022-11-13T06:42:01.793Z,3.3
2022-11-13T06:43:01.368Z,3.3
2022-11-13T06:44:03.242Z,3.3
2022-11-13T06:45:02.045Z,3.4
2022-11-13T06:46:01.183Z,3.6
2022-11-13T06:47:01.780Z,3.7
2022-11-13T06:48:01.358Z,3.7
2022-11-13T06:49:01.938Z,3.8
2022-11-13T06:50:01.808Z,3.8
2022-11-13T06:51:01.096Z,3.8
2022-11-13T06:52:01.688Z,3.8
2022-11-13T06:53:01.270Z,3.7
2022-11-13T06:54:01.918Z,3.6
2022-11-13T06:55:01.509Z,3.5
2022-11-13T06:56:01.092Z,3.4
2022-11-13T06:57:01.690Z,3.4
2022-11-13T06:58:01.284Z,3.5
2022-11-13T06:59:04.037Z,3.5
2022-11-13T07:00:01.386Z,3.6
2022-11-13T07:01:02.013Z,3.7
2022-11-13T07:02:01.630Z,3.7
2022-11-13T07:03:01.204Z,3.7
2022-11-13T07:04:01.774Z,3.6
2022-11-13T07:05:01.349Z,3.7
2022-11-13T07:06:02.126Z,3.8
2022-11-13T07:07:01.639Z,3.7
2022-11-13T07:08:01.186Z,3.7
2022-11-13T07:09:01.752Z,3.6
2022-11-13T07:10:01.328Z,3.6
2022-11-13T07:11:01.909Z,3.6
2022-11-13T07:12:01.506Z,3.6
2022-11-13T07:13:02.062Z,3.6
2022-11-13T07:14:01.636Z,3.6
2022-11-13T07:15:01.213Z,3.5
2022-11-13T07:16:05.937Z,3.5
2022-11-13T07:17:10.247Z,3.5
2022-11-13T07:18:01.880Z,3.5
2022-11-13T07:19:01.464Z,3.6
2022-11-13T07:20:02.045Z,3.7
2022-11-13T07:21:01.620Z,3.8
2022-11-13T07:22:01.347Z,3.8
2022-11-13T07:23:01.785Z,3.7
2022-11-13T07:24:01.377Z,3.7
2022-11-13T07:25:01.947Z,3.8
2022-11-13T07:26:01.521Z,3.9
2022-11-13T07:27:01.100Z,3.9
2022-11-13T07:28:01.695Z,4.1
2022-11-13T07:29:01.305Z,4.1
2022-11-13T07:30:03.757Z,4.2
2022-11-13T07:31:01.426Z,4.2
2022-11-13T07:32:02.004Z,4.1
2022-11-13T07:33:01.577Z,4.1
2022-11-13T07:34:01.169Z,4.1
2022-11-13T07:35:01.734Z,4.2
2022-11-13T07:36:01.309Z,4.2
2022-11-13T07:37:01.891Z,4.1
2022-11-13T07:38:01.602Z,4.3
2022-11-13T07:39:02.041Z,4.4
2022-11-13T07:40:01.660Z,4.5
2022-11-13T07:41:01.242Z,4.5
2022-11-13T07:42:01.819Z,4.4
2022-11-13T07:43:01.397Z,4.5
2022-11-13T07:44:04.401Z,4.5
2022-11-13T07:45:01.531Z,4.6
2022-11-13T07:46:01.105Z,4.6
2022-11-13T07:47:01.681Z,4.8
2022-11-13T07:48:01.284Z,4.8
2022-11-13T07:49:01.865Z,4.8
2022-11-13T07:50:06.838Z,4.8
2022-11-13T07:51:01.583Z,4.8
2022-11-13T07:52:01.166Z,4.9
2022-11-13T07:53:00.738Z,4.9
2022-11-13T07:54:01.429Z,5
2022-11-13T07:55:01.018Z,5
2022-11-13T07:56:00.611Z,5.1
2022-11-13T07:57:01.179Z,5.3
2022-11-13T07:58:00.754Z,5.2
2022-11-13T07:59:01.334Z,5.2
2022-11-13T08:00:00.926Z,5.2
2022-11-13T08:01:01.544Z,5.1
2022-11-13T08:02:01.199Z,5.1
2022-11-13T08:03:00.742Z,5.2
2022-11-13T08:04:01.342Z,5.2
2022-11-13T08:05:00.922Z,5.3
2022-11-13T08:06:01.521Z,5.4
2022-11-13T08:07:01.165Z,5.4
2022-11-13T08:08:00.745Z,5.6
2022-11-13T08:09:01.319Z,5.7
2022-11-13T08:10:01.019Z,5.7
2022-11-13T08:11:01.505Z,5.9
2022-11-13T08:12:01.085Z,6
2022-11-13T08:13:00.677Z,6.1
2022-11-13T08:14:01.246Z,6.3
2022-11-13T08:15:00.841Z,6.3
2022-11-13T08:16:01.405Z,6.3
2022-11-13T08:17:00.983Z,6.4
2022-11-13T08:18:01.563Z,6.5
2022-11-13T08:19:01.143Z,6.6
2022-11-13T08:20:00.740Z,6.6
2022-11-13T08:21:01.327Z,6.7
2022-11-13T08:22:00.905Z,6.7
2022-11-13T08:23:01.480Z,6.7
2022-11-13T08:24:01.055Z,6.7
2022-11-13T08:25:00.640Z,6.6
2022-11-13T08:26:01.358Z,6.7
2022-11-13T08:27:00.875Z,6.7
2022-11-13T08:28:01.451Z,6.7
2022-11-13T08:29:01.079Z,6.6
2022-11-13T08:30:00.648Z,6.7
2022-11-13T08:31:01.244Z,6.7
2022-11-13T08:32:00.818Z,6.8
2022-11-13T08:33:01.393Z,6.9
2022-11-13T08:34:00.965Z,7.1
2022-11-13T08:35:01.540Z,7.2
2022-11-13T08:36:01.138Z,7.3
2022-11-13T08:37:00.712Z,7.4
2022-11-13T08:38:01.288Z,7.5
2022-11-13T08:39:00.862Z,7.6
2022-11-13T08:40:01.438Z,7.6
2022-11-13T08:41:04.503Z,7.7
2022-11-13T08:42:01.605Z,7.8
2022-11-13T08:43:01.178Z,7.8
2022-11-13T08:44:00.757Z,7.9
2022-11-13T08:45:01.327Z,7.9
2022-11-13T08:46:00.908Z,8
2022-11-13T08:47:01.521Z,8
2022-11-13T08:48:01.111Z,7.9
2022-11-13T08:49:00.686Z,8
2022-11-13T08:50:01.260Z,8
2022-11-13T08:51:00.837Z,7.8
2022-11-13T08:52:01.510Z,7.8
2022-11-13T08:53:01.084Z,7.8
2022-11-13T08:54:00.659Z,7.8
2022-11-13T08:55:01.234Z,7.8
2022-11-13T08:56:00.808Z,7.8
2022-11-13T08:57:05.739Z,7.8
2022-11-13T08:58:01.059Z,7.9
2022-11-13T08:59:00.636Z,7.8
2022-11-13T09:00:01.194Z,7.9
2022-11-13T09:01:00.770Z,7.9
2022-11-13T09:02:01.344Z,7.9
2022-11-13T09:03:00.917Z,8
2022-11-13T09:04:01.568Z,8
2022-11-13T09:05:01.175Z,8
2022-11-13T09:06:00.738Z,8.1
2022-11-13T09:07:01.381Z,8.2
2022-11-13T09:08:00.990Z,8.2
2022-11-13T09:09:01.578Z,8.3
2022-11-13T09:10:01.153Z,8.4
2022-11-13T09:11:00.729Z,8.3
2022-11-13T09:12:01.305Z,8.3
2022-11-13T09:13:00.880Z,8.3
2022-11-13T09:14:01.586Z,8.3
2022-11-13T09:15:01.102Z,8.4
2022-11-13T09:16:00.678Z,8.4
2022-11-13T09:17:01.253Z,8.5
2022-11-13T09:18:00.827Z,8.5
2022-11-13T09:19:01.424Z,8.6
2022-11-13T09:20:04.172Z,8.7
2022-11-13T09:21:01.552Z,8.7
2022-11-13T09:22:01.125Z,8.8
2022-11-13T09:23:00.700Z,8.8
2022-11-13T09:24:01.277Z,8.8
2022-11-13T09:25:00.853Z,8.9
2022-11-13T09:26:01.442Z,9
2022-11-13T09:27:01.027Z,9
2022-11-13T09:28:00.605Z,9.1
2022-11-13T09:29:01.179Z,9.1
2022-11-13T09:30:00.786Z,9.3
2022-11-13T09:31:01.367Z,9.3
2022-11-13T09:32:00.941Z,9.4
2022-11-13T09:33:01.529Z,9.4
2022-11-13T09:34:01.103Z,9.5
2022-11-13T09:35:00.694Z,9.5
2022-11-13T09:36:01.282Z,9.6
2022-11-13T09:37:00.873Z,9.6
2022-11-13T09:38:03.299Z,9.7
2022-11-13T09:39:00.983Z,9.7
2022-11-13T09:40:01.593Z,9.8
2022-11-13T09:41:01.195Z,9.8
2022-11-13T09:42:00.769Z,9.8
2022-11-13T09:43:01.343Z,9.8
2022-11-13T09:44:00.918Z,9.8
2022-11-13T09:45:01.490Z,10
2022-11-13T09:46:01.210Z,10
2022-11-13T09:47:00.666Z,10
2022-11-13T09:48:01.237Z,10.1
2022-11-13T09:49:00.815Z,10.2
2022-11-13T09:50:01.403Z,10.2
2022-11-13T09:51:00.996Z,10.2
2022-11-13T09:52:05.357Z,10.2
2022-11-13T09:53:01.210Z,10.3
2022-11-13T09:54:00.785Z,10.4
2022-11-13T09:55:01.364Z,10.4
2022-11-13T09:56:00.958Z,10.4
2022-11-13T09:57:01.540Z,10.5
2022-11-13T09:58:01.114Z,10.6
2022-11-13T09:59:00.691Z,10.6
2022-11-13T10:00:01.267Z,10.6
2022-11-13T10:01:00.877Z,10.6
2022-11-13T10:02:01.552Z,10.7
2022-11-13T10:03:01.087Z,10.8
2022-11-13T10:04:04.078Z,10.7
2022-11-13T10:05:01.199Z,10.8
2022-11-13T10:06:00.796Z,10.9
2022-11-13T10:07:01.416Z,11
2022-11-13T10:08:01.021Z,11
2022-11-13T10:09:00.597Z,11.1
2022-11-13T10:10:01.170Z,11.1
2022-11-13T10:11:00.761Z,11.3
2022-11-13T10:12:01.351Z,11.3
2022-11-13T10:13:00.929Z,11.3
2022-11-13T10:14:01.506Z,11.3
2022-11-13T10:15:01.081Z,11.4
2022-11-13T10:16:00.656Z,11.5
2022-11-13T10:17:01.248Z,11.5
2022-11-13T10:18:00.940Z,11.6
2022-11-13T10:19:01.409Z,11.6
2022-11-13T10:20:00.989Z,11.7
2022-11-13T10:21:04.431Z,11.8
2022-11-13T10:22:13.998Z,11.8
2022-11-13T10:23:00.660Z,11.8
2022-11-13T10:24:01.242Z,12
2022-11-13T10:25:00.820Z,12
2022-11-13T10:26:01.402Z,12
2022-11-13T10:27:00.994Z,12
2022-11-13T10:28:11.345Z,12.1
2022-11-13T10:29:01.140Z,12.2
2022-11-13T10:30:00.768Z,12.2
2022-11-13T10:31:01.363Z,12.3
2022-11-13T10:32:00.938Z,12.3
2022-11-13T10:33:01.532Z,12.3
2022-11-13T10:34:01.232Z,12.4
2022-11-13T10:35:00.749Z,12.5
2022-11-13T10:36:01.330Z,12.5
2022-11-13T10:37:00.911Z,12.7
2022-11-13T10:38:06.557Z,12.7
2022-11-13T10:39:01.040Z,12.8
2022-11-13T10:40:00.620Z,12.9
2022-11-13T10:41:01.200Z,12.9
2022-11-13T10:42:00.776Z,13.1
2022-11-13T10:43:01.369Z,13.1
2022-11-13T10:44:00.946Z,13.3
2022-11-13T10:45:01.526Z,13.3
2022-11-13T10:46:01.106Z,13.3
2022-11-13T10:47:00.751Z,13.4
2022-11-13T10:48:05.284Z,13.5
2022-11-13T10:49:00.842Z,13.5
2022-11-13T10:50:01.533Z,13.6
2022-11-13T10:51:01.074Z,13.6
2022-11-13T10:52:00.658Z,13.6
2022-11-13T10:53:01.326Z,13.6
2022-11-13T10:54:00.915Z,13.7
2022-11-13T10:55:01.476Z,13.7
2022-11-13T10:56:01.050Z,13.7
2022-11-13T10:57:00.673Z,13.7
2022-11-13T10:58:01.212Z,13.7
2022-11-13T10:59:00.808Z,13.7
2022-11-13T11:00:01.360Z,13.8
2022-11-13T11:01:00.991Z,13.8
2022-11-13T11:02:01.519Z,13.8
2022-11-13T11:03:01.097Z,13.8
2022-11-13T11:04:00.688Z,13.8
2022-11-13T11:05:01.262Z,14
2022-11-13T11:06:00.959Z,14
2022-11-13T11:08:01.033Z,14.1
2022-11-13T11:09:00.679Z,14.2
2022-11-13T11:10:01.239Z,14.2
2022-11-13T11:11:00.818Z,14.3
2022-11-13T11:12:01.391Z,14.3
2022-11-13T11:13:00.971Z,14.3
2022-11-13T11:14:01.572Z,14.3
2022-11-13T11:15:01.162Z,14.4
2022-11-13T11:16:00.740Z,14.4
2022-11-13T11:17:01.319Z,14.5
2022-11-13T11:18:00.896Z,14.5
2022-11-13T11:19:01.484Z,14.6
2022-11-13T11:20:01.081Z,14.5
2022-11-13T11:21:00.645Z,14.6
2022-11-13T11:22:01.336Z,14.6
2022-11-13T11:23:00.876Z,14.6
2022-11-13T11:24:01.470Z,14.5
2022-11-13T11:25:01.065Z,14.5
2022-11-13T11:26:00.632Z,14.4
2022-11-13T11:27:01.212Z,14.5
2022-11-13T11:28:00.790Z,14.5
2022-11-13T11:29:01.373Z,14.5
2022-11-13T11:30:00.968Z,14.5
2022-11-13T11:31:01.541Z,14.5
2022-11-13T11:32:01.122Z,14.6
2022-11-13T11:33:00.699Z,14.6
2022-11-13T11:34:01.275Z,14.6
2022-11-13T11:35:00.866Z,14.6
2022-11-13T11:36:01.447Z,14.6
2022-11-13T11:37:01.022Z,14.5
2022-11-13T11:38:00.719Z,14.6
2022-11-13T11:39:01.182Z,14.7
2022-11-13T11:40:00.761Z,14.7
2022-11-13T11:41:01.359Z,14.7
2022-11-13T11:42:00.933Z,14.8
2022-11-13T11:43:01.507Z,14.8
2022-11-13T11:44:01.082Z,14.8
2022-11-13T11:45:00.657Z,14.8
2022-11-13T11:46:01.249Z,14.8
2022-11-13T11:47:00.878Z,14.8
2022-11-13T11:48:01.452Z,14.8
2022-11-13T11:49:01.026Z,14.8
2022-11-13T11:50:00.602Z,14.8
2022-11-13T11:51:01.195Z,14.9
2022-11-13T11:52:00.772Z,14.9
2022-11-13T11:53:01.346Z,14.9
2022-11-13T11:54:01.137Z,15
2022-11-13T11:55:01.504Z,15
2022-11-13T11:56:01.100Z,15.1
2022-11-13T11:57:00.678Z,15
2022-11-13T11:58:01.271Z,15.1
2022-11-13T11:59:00.853Z,15
2022-11-13T12:00:01.426Z,15.1
2022-11-13T12:01:01.002Z,15.2
2022-11-13T12:02:01.616Z,15.1
2022-11-13T12:03:01.195Z,15.2
2022-11-13T12:04:00.771Z,15.2
2022-11-13T12:05:01.371Z,15.2
2022-11-13T12:06:00.964Z,15.2
2022-11-13T12:07:01.601Z,15.2
2022-11-13T12:08:01.198Z,15.2
2022-11-13T12:09:00.774Z,15.2
2022-11-13T12:10:01.473Z,15.2
2022-11-13T12:11:01.005Z,15.2
2022-11-13T12:12:01.609Z,15.3
2022-11-13T12:13:01.182Z,15.3
2022-11-13T12:14:00.773Z,15.4
2022-11-13T12:15:01.346Z,15.4
2022-11-13T12:16:00.925Z,15.5
2022-11-13T12:17:01.513Z,15.5
2022-11-13T12:18:01.090Z,15.6
2022-11-13T12:19:00.666Z,15.5
2022-11-13T12:20:01.255Z,15.5
2022-11-13T12:21:00.834Z,15.4
2022-11-13T12:22:01.410Z,15.4
2022-11-13T12:23:00.988Z,15.4
2022-11-13T12:24:01.563Z,15.4
2022-11-13T12:25:01.158Z,15.4
2022-11-13T12:26:00.872Z,15.5
2022-11-13T12:27:01.319Z,15.5
2022-11-13T12:28:00.898Z,15.6
2022-11-13T12:29:01.478Z,15.5
2022-11-13T12:30:01.073Z,15.6
2022-11-13T12:31:00.632Z,15.5
2022-11-13T12:32:01.212Z,15.6
2022-11-13T12:33:00.790Z,15.6
2022-11-13T12:34:01.849Z,15.6
2022-11-13T12:35:01.033Z,15.6
2022-11-13T12:36:00.618Z,15.6
2022-11-13T12:37:01.170Z,15.6
2022-11-13T12:38:00.755Z,15.6
2022-11-13T12:39:01.330Z,15.7
2022-11-13T12:40:00.940Z,15.7
2022-11-13T12:41:01.497Z,15.7
2022-11-13T12:42:01.194Z,15.7
2022-11-13T12:43:00.658Z,15.7
2022-11-13T12:44:01.234Z,15.8
2022-11-13T12:45:00.835Z,15.7
2022-11-13T12:46:01.388Z,15.7
2022-11-13T12:47:00.962Z,15.8
2022-11-13T12:48:01.538Z,15.7
2022-11-13T12:49:01.129Z,15.8
2022-11-13T12:50:00.728Z,15.8
2022-11-13T12:51:01.288Z,15.9
2022-11-13T12:52:00.876Z,15.8
2022-11-13T12:53:01.457Z,15.8
2022-11-13T12:54:01.134Z,15.8
2022-11-13T12:55:00.627Z,15.8
2022-11-13T12:56:01.183Z,15.9
2022-11-13T12:57:00.779Z,15.9
2022-11-13T12:58:01.467Z,15.9
2022-11-13T12:59:28.937Z,15.8
2022-11-13T13:00:01.566Z,15.8
2022-11-13T13:01:01.252Z,15.8
2022-11-13T13:02:00.845Z,15.8
2022-11-13T13:03:01.419Z,15.9
2022-11-13T13:04:00.996Z,15.9
2022-11-13T13:05:01.568Z,15.9
2022-11-13T13:06:01.146Z,15.9
2022-11-13T13:07:00.793Z,15.8
2022-11-13T13:08:04.917Z,15.8
2022-11-13T13:09:00.840Z,15.9
2022-11-13T13:10:01.417Z,15.8
2022-11-13T13:11:00.991Z,15.8
2022-11-13T13:12:01.583Z,15.8
2022-11-13T13:13:01.160Z,15.8
2022-11-13T13:14:00.855Z,15.8
2022-11-13T13:15:01.313Z,15.8
2022-11-13T13:16:00.891Z,15.8
2022-11-13T13:17:01.496Z,15.8
2022-11-13T13:18:01.076Z,15.8
2022-11-13T13:19:00.652Z,15.7
2022-11-13T13:20:01.231Z,15.8
2022-11-13T13:21:00.816Z,15.8
2022-11-13T13:22:01.412Z,15.8
2022-11-13T13:23:02.961Z,15.8
2022-11-13T13:24:01.525Z,15.8
2022-11-13T13:25:01.102Z,15.8
2022-11-13T13:26:00.682Z,15.8
2022-11-13T13:27:01.273Z,15.8
2022-11-13T13:28:00.849Z,15.8
2022-11-13T13:29:01.423Z,15.8
2022-11-13T13:30:01.119Z,15.8
2022-11-13T13:31:01.573Z,15.8
2022-11-13T13:32:01.164Z,15.7
2022-11-13T13:33:00.742Z,15.8
2022-11-13T13:34:01.318Z,15.8
2022-11-13T13:35:00.895Z,15.8
2022-11-13T13:36:01.467Z,15.8
2022-11-13T13:37:01.057Z,15.8
2022-11-13T13:38:00.651Z,15.8
2022-11-13T13:39:01.204Z,15.8
2022-11-13T13:40:00.799Z,15.8
2022-11-13T13:41:01.356Z,15.8
2022-11-13T13:42:00.950Z,15.8
2022-11-13T13:43:01.530Z,15.8
2022-11-13T13:44:01.103Z,15.8
2022-11-13T13:45:00.687Z,15.8
2022-11-13T13:46:01.379Z,15.8